sensor_id;sensor_type;location;lat;lon;timestamp;pressure;altitude;pressure_sealevel;temperature;humidity
27805;BME280;15183;51.350;11.102;2022-12-20T00:01:33;100388.72;;;7.50;75.17
27805;BME280;15183;51.350;11.102;2022-12-20T00:04:03;100394.03;;;7.57;74.97
27805;BME280;15183;51.350;11.102;2022-12-20T00:06:34;100344.69;;;7.22;74.83
27805;BME280;15183;51.350;11.102;2022-12-20T00:09:04;100376.38;;;7.29;74.85
27805;BME280;15183;51.350;11.102;2022-12-20T00:11:32;100379.66;;;7.31;74.63
27805;BME280;15183;51.350;11.102;2022-12-20T00:13:58;100432.06;;;7.70;74.92
27805;BME280;15183;51.350;11.102;2022-12-20T00:16:27;100374.94;;;7.27;74.44
27805;BME280;15183;51.350;11.102;2022-12-20T00:18:57;100371.44;;;7.19;74.65
27805;BME280;15183;51.350;11.102;2022-12-20T00:21:25;100428.06;;;7.52;74.88
27805;BME280;15183;51.350;11.102;2022-12-20T00:23:53;100359.16;;;7.05;74.92
27805;BME280;15183;51.350;11.102;2022-12-20T00:26:23;100318.31;;;6.72;75.31
27805;BME280;15183;51.350;11.102;2022-12-20T00:28:50;100386.47;;;7.26;74.81
27805;BME280;15183;51.350;11.102;2022-12-20T00:31:19;100362.28;;;7.15;75.14
27805;BME280;15183;51.350;11.102;2022-12-20T00:34:03;100334.44;;;7.06;75.21
27805;BME280;15183;51.350;11.102;2022-12-20T00:36:31;100366.16;;;7.41;75.28
27805;BME280;15183;51.350;11.102;2022-12-20T00:39:02;100337.25;;;7.04;74.50
27805;BME280;15183;51.350;11.102;2022-12-20T00:41:31;100340.91;;;7.03;74.24
27805;BME280;15183;51.350;11.102;2022-12-20T00:43:59;100330.75;;;7.00;75.10
27805;BME280;15183;51.350;11.102;2022-12-20T00:46:25;100400.97;;;7.36;75.03
27805;BME280;15183;51.350;11.102;2022-12-20T00:48:56;100332.44;;;6.86;74.99
27805;BME280;15183;51.350;11.102;2022-12-20T00:51:26;100363.84;;;7.09;75.33
27805;BME280;15183;51.350;11.102;2022-12-20T00:53:54;100407.88;;;7.37;75.69
27805;BME280;15183;51.350;11.102;2022-12-20T00:56:23;100380.22;;;7.27;75.47
27805;BME280;15183;51.350;11.102;2022-12-20T00:58:50;100341.03;;;6.95;74.94
27805;BME280;15183;51.350;11.102;2022-12-20T01:01:29;100317.00;;;6.83;75.02
27805;BME280;15183;51.350;11.102;2022-12-20T01:03:56;100400.91;;;7.30;75.35
27805;BME280;15183;51.350;11.102;2022-12-20T01:06:24;100420.88;;;7.39;75.53
27805;BME280;15183;51.350;11.102;2022-12-20T01:08:54;100386.41;;;7.19;75.65
27805;BME280;15183;51.350;11.102;2022-12-20T01:11:27;100428.41;;;7.42;75.70
27805;BME280;15183;51.350;11.102;2022-12-20T01:14:07;100333.69;;;6.90;75.15
27805;BME280;15183;51.350;11.102;2022-12-20T01:16:38;100413.59;;;7.41;75.70
27805;BME280;15183;51.350;11.102;2022-12-20T01:19:07;100362.06;;;7.17;75.79
27805;BME280;15183;51.350;11.102;2022-12-20T01:21:34;100380.22;;;7.27;75.45
27805;BME280;15183;51.350;11.102;2022-12-20T01:24:01;100366.16;;;7.19;75.00
27805;BME280;15183;51.350;11.102;2022-12-20T01:26:29;100353.69;;;7.28;75.11
27805;BME280;15183;51.350;11.102;2022-12-20T01:28:59;100384.22;;;7.44;75.67
27805;BME280;15183;51.350;11.102;2022-12-20T01:31:26;100360.19;;;7.32;75.09
27805;BME280;15183;51.350;11.102;2022-12-20T01:33:56;100349.19;;;7.29;75.18
27805;BME280;15183;51.350;11.102;2022-12-20T01:36:26;100396.34;;;7.67;75.04
27805;BME280;15183;51.350;11.102;2022-12-20T01:39:19;100312.47;;;7.20;74.96
27805;BME280;15183;51.350;11.102;2022-12-20T01:41:46;100336.66;;;7.31;75.19
27805;BME280;15183;51.350;11.102;2022-12-20T01:46:46;100332.69;;;7.42;74.78
27805;BME280;15183;51.350;11.102;2022-12-20T01:49:24;100381.63;;;7.79;74.46
27805;BME280;15183;51.350;11.102;2022-12-20T01:54:33;100368.78;;;7.76;75.05
27805;BME280;15183;51.350;11.102;2022-12-20T01:57:05;100329.50;;;7.53;74.63
27805;BME280;15183;51.350;11.102;2022-12-20T01:59:37;100296.50;;;7.29;75.55
27805;BME280;15183;51.350;11.102;2022-12-20T02:02:08;100333.44;;;7.64;75.42
27805;BME280;15183;51.350;11.102;2022-12-20T02:04:36;100286.63;;;7.37;75.26
27805;BME280;15183;51.350;11.102;2022-12-20T02:07:03;100352.63;;;7.86;75.56
27805;BME280;15183;51.350;11.102;2022-12-20T02:09:31;100297.63;;;7.48;74.89
27805;BME280;15183;51.350;11.102;2022-12-20T02:12:25;100342.84;;;7.80;74.82
27805;BME280;15183;51.350;11.102;2022-12-20T02:15:20;100349.59;;;7.82;75.46
27805;BME280;15183;51.350;11.102;2022-12-20T02:29:36;100340.63;;;8.25;76.02
27805;BME280;15183;51.350;11.102;2022-12-20T02:32:19;100329.69;;;8.35;76.45
27805;BME280;15183;51.350;11.102;2022-12-20T02:34:47;100253.47;;;7.99;76.42
27805;BME280;15183;51.350;11.102;2022-12-20T02:37:14;100325.31;;;8.63;76.83
27805;BME280;15183;51.350;11.102;2022-12-20T02:39:41;100263.53;;;8.37;76.31
27805;BME280;15183;51.350;11.102;2022-12-20T02:42:19;100291.22;;;8.61;76.25
27805;BME280;15183;51.350;11.102;2022-12-20T02:44:56;100277.81;;;8.76;76.47
27805;BME280;15183;51.350;11.102;2022-12-20T02:47:51;100319.09;;;9.18;76.43
27805;BME280;15183;51.350;11.102;2022-12-20T02:50:41;100231.28;;;8.75;76.51
27805;BME280;15183;51.350;11.102;2022-12-20T02:53:11;100317.03;;;9.33;76.65
27805;BME280;15183;51.350;11.102;2022-12-20T02:56:06;100324.13;;;9.53;75.85
27805;BME280;15183;51.350;11.102;2022-12-20T02:58:54;100319.47;;;9.48;76.32
27805;BME280;15183;51.350;11.102;2022-12-20T03:01:36;100321.03;;;9.63;75.52
27805;BME280;15183;51.350;11.102;2022-12-20T03:04:04;100308.84;;;9.68;75.76
27805;BME280;15183;51.350;11.102;2022-12-20T03:06:32;100317.97;;;9.73;75.65
27805;BME280;15183;51.350;11.102;2022-12-20T03:08:59;100255.19;;;9.34;75.68
27805;BME280;15183;51.350;11.102;2022-12-20T03:11:25;100293.78;;;9.62;75.52
27805;BME280;15183;51.350;11.102;2022-12-20T03:13:52;100280.75;;;9.61;75.65
27805;BME280;15183;51.350;11.102;2022-12-20T03:16:21;100254.75;;;9.51;75.17
27805;BME280;15183;51.350;11.102;2022-12-20T03:18:50;100257.59;;;9.56;75.67
27805;BME280;15183;51.350;11.102;2022-12-20T03:21:17;100271.78;;;9.68;75.43
27805;BME280;15183;51.350;11.102;2022-12-20T03:23:43;100320.13;;;10.03;75.73
27805;BME280;15183;51.350;11.102;2022-12-20T03:26:10;100254.09;;;9.69;75.78
27805;BME280;15183;51.350;11.102;2022-12-20T03:28:36;100261.41;;;9.74;75.87
27805;BME280;15183;51.350;11.102;2022-12-20T03:31:03;100305.84;;;10.10;75.71
27805;BME280;15183;51.350;11.102;2022-12-20T03:33:29;100322.69;;;10.23;75.77
27805;BME280;15183;51.350;11.102;2022-12-20T03:35:55;100254.84;;;9.83;75.91
27805;BME280;15183;51.350;11.102;2022-12-20T03:38:22;100275.78;;;9.91;75.19
27805;BME280;15183;51.350;11.102;2022-12-20T03:40:48;100322.66;;;10.30;75.50
27805;BME280;15183;51.350;11.102;2022-12-20T03:43:15;100319.16;;;10.36;75.28
27805;BME280;15183;51.350;11.102;2022-12-20T03:45:41;100275.91;;;10.10;75.35
27805;BME280;15183;51.350;11.102;2022-12-20T03:48:08;100286.66;;;10.22;75.42
27805;BME280;15183;51.350;11.102;2022-12-20T03:50:34;100296.97;;;10.30;75.29
27805;BME280;15183;51.350;11.102;2022-12-20T03:53:02;100270.34;;;10.18;75.27
27805;BME280;15183;51.350;11.102;2022-12-20T03:55:28;100253.09;;;10.09;75.05
27805;BME280;15183;51.350;11.102;2022-12-20T03:57:55;100298.56;;;10.38;74.79
27805;BME280;15183;51.350;11.102;2022-12-20T04:00:21;100262.84;;;10.15;74.75
27805;BME280;15183;51.350;11.102;2022-12-20T04:02:48;100244.38;;;10.02;74.65
27805;BME280;15183;51.350;11.102;2022-12-20T04:05:14;100306.94;;;10.35;74.11
27805;BME280;15183;51.350;11.102;2022-12-20T04:07:41;100305.81;;;10.17;73.95
27805;BME280;15183;51.350;11.102;2022-12-20T04:10:08;100268.88;;;9.90;74.48
27805;BME280;15183;51.350;11.102;2022-12-20T04:12:35;100307.47;;;10.11;74.27
27805;BME280;15183;51.350;11.102;2022-12-20T04:15:01;100323.56;;;10.10;74.35
27805;BME280;15183;51.350;11.102;2022-12-20T04:17:27;100279.28;;;9.85;74.05
27805;BME280;15183;51.350;11.102;2022-12-20T04:19:54;100319.03;;;10.17;74.34
27805;BME280;15183;51.350;11.102;2022-12-20T04:22:20;100271.56;;;9.77;74.43
27805;BME280;15183;51.350;11.102;2022-12-20T04:24:47;100237.88;;;9.52;73.85
27805;BME280;15183;51.350;11.102;2022-12-20T04:27:14;100262.84;;;9.69;74.16
27805;BME280;15183;51.350;11.102;2022-12-20T04:29:40;100300.03;;;9.88;74.34
27805;BME280;15183;51.350;11.102;2022-12-20T04:32:07;100312.84;;;9.91;74.21
27805;BME280;15183;51.350;11.102;2022-12-20T04:34:33;100312.03;;;9.84;74.24
27805;BME280;15183;51.350;11.102;2022-12-20T04:37:00;100261.50;;;9.40;74.22
27805;BME280;15183;51.350;11.102;2022-12-20T04:39:26;100243.03;;;9.20;74.65
27805;BME280;15183;51.350;11.102;2022-12-20T04:41:53;100305.16;;;9.69;75.00
27805;BME280;15183;51.350;11.102;2022-12-20T04:44:19;100277.31;;;9.60;75.26
27805;BME280;15183;51.350;11.102;2022-12-20T04:46:45;100310.63;;;9.75;75.45
27805;BME280;15183;51.350;11.102;2022-12-20T04:49:12;100310.81;;;9.93;75.19
27805;BME280;15183;51.350;11.102;2022-12-20T04:51:38;100254.72;;;9.64;75.41
27805;BME280;15183;51.350;11.102;2022-12-20T04:54:05;100259.75;;;9.79;75.62
27805;BME280;15183;51.350;11.102;2022-12-20T04:56:31;100258.50;;;9.82;75.42
27805;BME280;15183;51.350;11.102;2022-12-20T04:58:58;100207.53;;;9.54;75.39
27805;BME280;15183;51.350;11.102;2022-12-20T05:01:25;100258.47;;;9.89;75.10
27805;BME280;15183;51.350;11.102;2022-12-20T05:03:52;100229.03;;;9.78;75.15
27805;BME280;15183;51.350;11.102;2022-12-20T05:06:19;100309.03;;;10.26;74.88
27805;BME280;15183;51.350;11.102;2022-12-20T05:08:46;100219.66;;;9.76;75.08
27805;BME280;15183;51.350;11.102;2022-12-20T05:11:12;100247.28;;;9.93;74.74
27805;BME280;15183;51.350;11.102;2022-12-20T05:13:39;100207.69;;;9.66;74.29
27805;BME280;15183;51.350;11.102;2022-12-20T05:16:06;100216.91;;;9.57;73.94
27805;BME280;15183;51.350;11.102;2022-12-20T05:18:32;100257.91;;;9.80;73.89
27805;BME280;15183;51.350;11.102;2022-12-20T05:21:00;100271.34;;;9.78;74.21
27805;BME280;15183;51.350;11.102;2022-12-20T05:23:46;100205.59;;;9.23;74.27
27805;BME280;15183;51.350;11.102;2022-12-20T05:26:34;100271.00;;;9.54;74.29
27805;BME280;15183;51.350;11.102;2022-12-20T05:29:01;100202.41;;;9.01;74.55
27805;BME280;15183;51.350;11.102;2022-12-20T05:31:28;100259.88;;;9.32;74.29
27805;BME280;15183;51.350;11.102;2022-12-20T05:33:54;100232.91;;;8.96;73.98
27805;BME280;15183;51.350;11.102;2022-12-20T05:36:23;100240.22;;;8.81;73.91
27805;BME280;15183;51.350;11.102;2022-12-20T05:38:50;100232.09;;;8.76;74.27
27805;BME280;15183;51.350;11.102;2022-12-20T05:41:16;100278.41;;;8.92;74.39
27805;BME280;15183;51.350;11.102;2022-12-20T05:43:43;100272.09;;;8.86;73.96
27805;BME280;15183;51.350;11.102;2022-12-20T05:46:09;100221.88;;;8.46;74.14
27805;BME280;15183;51.350;11.102;2022-12-20T05:48:36;100288.38;;;8.83;74.83
27805;BME280;15183;51.350;11.102;2022-12-20T05:51:03;100264.19;;;8.73;75.03
27805;BME280;15183;51.350;11.102;2022-12-20T05:53:29;100233.06;;;8.41;74.38
27805;BME280;15183;51.350;11.102;2022-12-20T05:55:56;100246.25;;;8.48;74.60
27805;BME280;15183;51.350;11.102;2022-12-20T05:58:25;100272.53;;;8.83;74.18
27805;BME280;15183;51.350;11.102;2022-12-20T06:00:54;100286.16;;;8.87;74.08
27805;BME280;15183;51.350;11.102;2022-12-20T06:03:21;100214.97;;;8.38;73.88
27805;BME280;15183;51.350;11.102;2022-12-20T06:05:48;100225.72;;;8.36;73.62
27805;BME280;15183;51.350;11.102;2022-12-20T06:08:14;100200.94;;;8.17;73.93
27805;BME280;15183;51.350;11.102;2022-12-20T06:10:41;100259.47;;;8.41;74.34
27805;BME280;15183;51.350;11.102;2022-12-20T06:13:09;100199.28;;;8.03;74.49
27805;BME280;15183;51.350;11.102;2022-12-20T06:15:36;100239.50;;;8.18;74.00
27805;BME280;15183;51.350;11.102;2022-12-20T06:18:04;100211.81;;;7.87;74.14
27805;BME280;15183;51.350;11.102;2022-12-20T06:20:32;100258.56;;;8.14;74.50
27805;BME280;15183;51.350;11.102;2022-12-20T06:22:59;100233.94;;;7.93;74.42
27805;BME280;15183;51.350;11.102;2022-12-20T06:25:27;100167.47;;;7.56;74.97
27805;BME280;15183;51.350;11.102;2022-12-20T06:27:54;100259.19;;;8.22;75.25
27805;BME280;15183;51.350;11.102;2022-12-20T06:30:21;100257.78;;;8.26;75.32
27805;BME280;15183;51.350;11.102;2022-12-20T06:32:48;100262.06;;;8.28;75.37
27805;BME280;15183;51.350;11.102;2022-12-20T06:35:15;100214.31;;;8.09;75.07
27805;BME280;15183;51.350;11.102;2022-12-20T06:37:41;100215.13;;;8.16;74.85
27805;BME280;15183;51.350;11.102;2022-12-20T06:40:10;100169.00;;;7.92;74.96
27805;BME280;15183;51.350;11.102;2022-12-20T06:42:40;100199.09;;;8.11;74.45
27805;BME280;15183;51.350;11.102;2022-12-20T06:45:10;100276.78;;;8.64;74.44
27805;BME280;15183;51.350;11.102;2022-12-20T06:47:37;100172.44;;;7.92;74.21
27805;BME280;15183;51.350;11.102;2022-12-20T06:50:05;100285.31;;;8.66;74.67
27805;BME280;15183;51.350;11.102;2022-12-20T06:52:32;100221.63;;;8.14;74.61
27805;BME280;15183;51.350;11.102;2022-12-20T06:54:59;100226.50;;;8.23;74.58
27805;BME280;15183;51.350;11.102;2022-12-20T06:57:26;100214.34;;;8.16;74.40
27805;BME280;15183;51.350;11.102;2022-12-20T06:59:53;100214.94;;;8.18;74.68
27805;BME280;15183;51.350;11.102;2022-12-20T07:02:20;100240.16;;;8.34;74.17
27805;BME280;15183;51.350;11.102;2022-12-20T07:04:47;100286.13;;;8.53;74.12
27805;BME280;15183;51.350;11.102;2022-12-20T07:07:16;100238.09;;;8.16;74.38
27805;BME280;15183;51.350;11.102;2022-12-20T07:09:46;100267.94;;;8.30;74.49
27805;BME280;15183;51.350;11.102;2022-12-20T07:12:14;100198.22;;;7.84;74.47
27805;BME280;15183;51.350;11.102;2022-12-20T07:14:41;100209.97;;;7.81;74.33
27805;BME280;15183;51.350;11.102;2022-12-20T07:17:10;100233.97;;;8.00;74.19
27805;BME280;15183;51.350;11.102;2022-12-20T07:19:37;100256.13;;;8.12;74.28
27805;BME280;15183;51.350;11.102;2022-12-20T07:22:04;100202.44;;;7.78;74.30
27805;BME280;15183;51.350;11.102;2022-12-20T07:24:32;100196.75;;;7.67;73.81
27805;BME280;15183;51.350;11.102;2022-12-20T07:26:59;100211.78;;;7.74;74.43
27805;BME280;15183;51.350;11.102;2022-12-20T07:29:27;100215.19;;;7.67;73.91
27805;BME280;15183;51.350;11.102;2022-12-20T07:31:54;100264.16;;;7.90;74.52
27805;BME280;15183;51.350;11.102;2022-12-20T07:34:20;100220.66;;;7.66;74.25
27805;BME280;15183;51.350;11.102;2022-12-20T07:37:06;100211.50;;;7.62;74.76
27805;BME280;15183;51.350;11.102;2022-12-20T07:39:34;100230.81;;;7.62;74.46
27805;BME280;15183;51.350;11.102;2022-12-20T07:42:00;100253.56;;;7.77;74.94
27805;BME280;15183;51.350;11.102;2022-12-20T07:44:27;100204.34;;;7.49;74.77
27805;BME280;15183;51.350;11.102;2022-12-20T07:46:57;100221.88;;;7.63;74.88
27805;BME280;15183;51.350;11.102;2022-12-20T07:49:23;100201.72;;;7.42;74.17
27805;BME280;15183;51.350;11.102;2022-12-20T07:51:53;100222.50;;;7.65;74.42
27805;BME280;15183;51.350;11.102;2022-12-20T07:54:39;100293.22;;;7.97;74.23
27805;BME280;15183;51.350;11.102;2022-12-20T07:57:22;100278.38;;;7.89;74.81
27805;BME280;15183;51.350;11.102;2022-12-20T07:59:53;100270.06;;;7.92;74.96
27805;BME280;15183;51.350;11.102;2022-12-20T08:02:26;100275.59;;;7.97;74.90
27805;BME280;15183;51.350;11.102;2022-12-20T08:04:56;100285.13;;;8.05;74.96
27805;BME280;15183;51.350;11.102;2022-12-20T08:07:27;100213.75;;;7.58;74.77
27805;BME280;15183;51.350;11.102;2022-12-20T08:09:55;100254.03;;;7.94;75.12
27805;BME280;15183;51.350;11.102;2022-12-20T08:12:21;100245.16;;;8.02;74.97
27805;BME280;15183;51.350;11.102;2022-12-20T08:14:51;100172.31;;;7.52;74.93
27805;BME280;15183;51.350;11.102;2022-12-20T08:17:22;100250.44;;;8.02;74.93
27805;BME280;15183;51.350;11.102;2022-12-20T08:19:48;100177.88;;;7.71;75.12
27805;BME280;15183;51.350;11.102;2022-12-20T08:22:18;100142.53;;;7.51;74.69
27805;BME280;15183;51.350;11.102;2022-12-20T08:24:45;100162.03;;;7.64;74.46
27805;BME280;15183;51.350;11.102;2022-12-20T08:27:12;100233.38;;;7.97;75.21
27805;BME280;15183;51.350;11.102;2022-12-20T08:29:38;100267.34;;;8.21;74.75
27805;BME280;15183;51.350;11.102;2022-12-20T08:32:04;100271.59;;;8.29;74.86
27805;BME280;15183;51.350;11.102;2022-12-20T08:34:31;100262.06;;;8.21;74.72
27805;BME280;15183;51.350;11.102;2022-12-20T08:36:58;100185.97;;;7.69;74.49
27805;BME280;15183;51.350;11.102;2022-12-20T08:39:24;100255.75;;;8.22;74.72
27805;BME280;15183;51.350;11.102;2022-12-20T08:41:51;100185.19;;;7.75;74.82
27805;BME280;15183;51.350;11.102;2022-12-20T08:44:17;100231.56;;;8.05;74.61
27805;BME280;15183;51.350;11.102;2022-12-20T08:46:44;100230.16;;;8.09;74.69
27805;BME280;15183;51.350;11.102;2022-12-20T08:49:10;100180.78;;;7.96;75.03
27805;BME280;15183;51.350;11.102;2022-12-20T08:51:37;100197.25;;;8.11;75.01
27805;BME280;15183;51.350;11.102;2022-12-20T08:54:03;100168.44;;;8.10;74.87
27805;BME280;15183;51.350;11.102;2022-12-20T08:56:30;100181.03;;;8.15;73.90
27805;BME280;15183;51.350;11.102;2022-12-20T08:58:59;100195.63;;;8.04;73.81
27805;BME280;15183;51.350;11.102;2022-12-20T09:01:26;100205.97;;;7.99;74.25
27805;BME280;15183;51.350;11.102;2022-12-20T09:03:55;100167.53;;;7.76;74.56
27805;BME280;15183;51.350;11.102;2022-12-20T09:06:22;100187.66;;;7.90;74.86
27805;BME280;15183;51.350;11.102;2022-12-20T09:08:50;100238.34;;;8.41;74.81
27805;BME280;15183;51.350;11.102;2022-12-20T09:11:23;100186.47;;;8.06;75.38
27805;BME280;15183;51.350;11.102;2022-12-20T09:14:18;100164.16;;;8.02;75.02
27805;BME280;15183;51.350;11.102;2022-12-20T09:16:47;100249.75;;;8.62;74.69
27805;BME280;15183;51.350;11.102;2022-12-20T09:19:17;100248.34;;;8.73;75.19
27805;BME280;15183;51.350;11.102;2022-12-20T09:21:46;100155.88;;;8.19;74.57
27805;BME280;15183;51.350;11.102;2022-12-20T09:24:12;100152.22;;;8.20;74.30
27805;BME280;15183;51.350;11.102;2022-12-20T09:26:41;100249.97;;;8.74;74.11
27805;BME280;15183;51.350;11.102;2022-12-20T09:29:08;100195.28;;;8.34;74.38
27805;BME280;15183;51.350;11.102;2022-12-20T09:31:35;100244.06;;;8.72;74.68
27805;BME280;15183;51.350;11.102;2022-12-20T09:34:02;100177.78;;;8.33;74.94
27805;BME280;15183;51.350;11.102;2022-12-20T09:36:29;100164.59;;;8.33;75.08
27805;BME280;15183;51.350;11.102;2022-12-20T09:38:56;100133.31;;;8.30;75.10
27805;BME280;15183;51.350;11.102;2022-12-20T09:44:09;100127.03;;;8.44;75.19
27805;BME280;15183;51.350;11.102;2022-12-20T09:46:38;100147.34;;;8.71;75.15
27805;BME280;15183;51.350;11.102;2022-12-20T09:49:07;100195.44;;;9.20;74.78
27805;BME280;15183;51.350;11.102;2022-12-20T09:59:50;100177.16;;;9.70;74.44
27805;BME280;15183;51.350;11.102;2022-12-20T10:02:22;100126.63;;;9.40;74.16
27805;BME280;15183;51.350;11.102;2022-12-20T10:04:49;100122.91;;;9.54;73.97
27805;BME280;15183;51.350;11.102;2022-12-20T10:16:19;100155.63;;;9.60;73.36
27805;BME280;15183;51.350;11.102;2022-12-20T10:22:35;100203.56;;;10.16;74.02
27805;BME280;15183;51.350;11.102;2022-12-20T10:27:44;100164.63;;;9.91;73.89
27805;BME280;15183;51.350;11.102;2022-12-20T10:30:34;100114.69;;;9.69;74.00
27805;BME280;15183;51.350;11.102;2022-12-20T10:33:01;100125.53;;;9.93;74.26
27805;BME280;15183;51.350;11.102;2022-12-20T10:35:32;100145.38;;;10.09;73.60
27805;BME280;15183;51.350;11.102;2022-12-20T10:38:11;100159.97;;;10.19;73.33
27805;BME280;15183;51.350;11.102;2022-12-20T10:40:45;100132.66;;;9.93;73.48
27805;BME280;15183;51.350;11.102;2022-12-20T10:43:19;100105.34;;;9.67;73.43
27805;BME280;15183;51.350;11.102;2022-12-20T10:46:07;100134.09;;;9.89;73.62
27805;BME280;15183;51.350;11.102;2022-12-20T10:48:39;100137.19;;;9.85;73.95
27805;BME280;15183;51.350;11.102;2022-12-20T10:53:54;100145.44;;;9.96;74.29
27805;BME280;15183;51.350;11.102;2022-12-20T10:56:33;100125.53;;;9.93;74.37
27805;BME280;15183;51.350;11.102;2022-12-20T11:01:45;100092.16;;;9.92;74.47
27805;BME280;15183;51.350;11.102;2022-12-20T11:06:57;100048.88;;;9.80;73.74
27805;BME280;15183;51.350;11.102;2022-12-20T11:09:31;100061.66;;;9.83;74.07
27805;BME280;15183;51.350;11.102;2022-12-20T11:14:37;100040.91;;;9.80;74.22
27805;BME280;15183;51.350;11.102;2022-12-20T11:35:18;100108.97;;;10.55;74.24
27805;BME280;15183;51.350;11.102;2022-12-20T11:47:12;100089.53;;;10.43;73.73
27805;BME280;15183;51.350;11.102;2022-12-20T11:53:32;100077.09;;;10.44;74.23
27805;BME280;15183;51.350;11.102;2022-12-20T11:58:51;100011.09;;;10.17;74.11
27805;BME280;15183;51.350;11.102;2022-12-20T12:01:30;99996.84;;;10.18;74.26
27805;BME280;15183;51.350;11.102;2022-12-20T12:04:45;100077.25;;;10.67;73.87
27805;BME280;15183;51.350;11.102;2022-12-20T12:07:30;100036.63;;;10.55;74.16
27805;BME280;15183;51.350;11.102;2022-12-20T12:10:16;100024.03;;;10.50;74.28
27805;BME280;15183;51.350;11.102;2022-12-20T12:12:49;99999.03;;;10.46;73.97
27805;BME280;15183;51.350;11.102;2022-12-20T12:15:28;100049.50;;;10.89;73.97
27805;BME280;15183;51.350;11.102;2022-12-20T12:18:44;99995.81;;;10.37;73.51
27805;BME280;15183;51.350;11.102;2022-12-20T12:21:30;99997.88;;;10.35;73.74
27805;BME280;15183;51.350;11.102;2022-12-20T12:26:52;100025.38;;;10.78;74.10
27805;BME280;15183;51.350;11.102;2022-12-20T12:29:20;100029.13;;;10.70;73.82
27805;BME280;15183;51.350;11.102;2022-12-20T12:32:17;99943.38;;;10.27;73.91
27805;BME280;15183;51.350;11.102;2022-12-20T12:35:18;99988.13;;;10.54;73.34
27805;BME280;15183;51.350;11.102;2022-12-20T12:41:50;100034.56;;;10.76;73.87
27805;BME280;15183;51.350;11.102;2022-12-20T12:44:47;100031.25;;;10.80;74.33
27805;BME280;15183;51.350;11.102;2022-12-20T12:47:33;100027.72;;;10.86;74.28
27805;BME280;15183;51.350;11.102;2022-12-20T12:50:23;99980.03;;;10.49;73.83
27805;BME280;15183;51.350;11.102;2022-12-20T12:53:02;100015.72;;;10.84;74.10
27805;BME280;15183;51.350;11.102;2022-12-20T12:55:46;99983.03;;;10.71;74.01
27805;BME280;15183;51.350;11.102;2022-12-20T12:58:31;99978.31;;;10.74;73.85
27805;BME280;15183;51.350;11.102;2022-12-20T13:01:03;99955.75;;;10.71;73.45
27805;BME280;15183;51.350;11.102;2022-12-20T13:11:56;100033.28;;;11.15;72.96
27805;BME280;15183;51.350;11.102;2022-12-20T13:19:39;99952.38;;;10.64;73.45
27805;BME280;15183;51.350;11.102;2022-12-20T13:24:59;99980.59;;;10.89;73.21
27805;BME280;15183;51.350;11.102;2022-12-20T13:27:34;100019.75;;;11.05;73.71
27805;BME280;15183;51.350;11.102;2022-12-20T13:45:54;99965.72;;;10.88;73.03
27805;BME280;15183;51.350;11.102;2022-12-20T13:48:49;99921.44;;;10.39;72.26
27805;BME280;15183;51.350;11.102;2022-12-20T13:51:23;99958.78;;;10.56;73.08
27805;BME280;15183;51.350;11.102;2022-12-20T13:53:57;99909.31;;;10.31;73.26
27805;BME280;15183;51.350;11.102;2022-12-20T13:59:02;99948.91;;;10.63;73.28
27805;BME280;15183;51.350;11.102;2022-12-20T14:01:29;99937.06;;;10.47;73.45
27805;BME280;15183;51.350;11.102;2022-12-20T14:03:56;99935.13;;;10.54;73.86
27805;BME280;15183;51.350;11.102;2022-12-20T14:06:24;99988.13;;;11.04;73.55
27805;BME280;15183;51.350;11.102;2022-12-20T14:08:52;99948.50;;;10.78;73.42
27805;BME280;15183;51.350;11.102;2022-12-20T14:11:26;99981.34;;;11.08;72.58
27805;BME280;15183;51.350;11.102;2022-12-20T14:14:00;99979.56;;;10.90;73.13
27805;BME280;15183;51.350;11.102;2022-12-20T14:16:30;99994.47;;;11.03;72.95
27805;BME280;15183;51.350;11.102;2022-12-20T14:19:01;99986.97;;;10.99;72.35
27805;BME280;15183;51.350;11.102;2022-12-20T14:21:28;99923.75;;;10.54;72.54
27805;BME280;15183;51.350;11.102;2022-12-20T14:23:57;99967.97;;;10.72;72.43
27805;BME280;15183;51.350;11.102;2022-12-20T14:26:33;99909.19;;;10.45;72.54
27805;BME280;15183;51.350;11.102;2022-12-20T14:29:11;99974.44;;;10.76;72.66
27805;BME280;15183;51.350;11.102;2022-12-20T14:31:44;99944.44;;;10.64;72.83
27805;BME280;15183;51.350;11.102;2022-12-20T14:34:27;99915.66;;;10.49;72.60
27805;BME280;15183;51.350;11.102;2022-12-20T14:39:55;99965.72;;;10.88;72.58
27805;BME280;15183;51.350;11.102;2022-12-20T14:42:28;99966.75;;;10.86;72.29
27805;BME280;15183;51.350;11.102;2022-12-20T14:45:23;99937.53;;;10.75;72.79
27805;BME280;15183;51.350;11.102;2022-12-20T14:48:02;99888.44;;;10.41;72.32
27805;BME280;15183;51.350;11.102;2022-12-20T14:50:35;99891.16;;;10.35;72.38
27805;BME280;15183;51.350;11.102;2022-12-20T14:53:02;99951.63;;;10.75;72.17
27805;BME280;15183;51.350;11.102;2022-12-20T14:55:38;99885.13;;;10.27;72.46
27805;BME280;15183;51.350;11.102;2022-12-20T14:58:33;99918.00;;;10.57;72.38
27805;BME280;15183;51.350;11.102;2022-12-20T15:01:23;99932.41;;;10.61;73.19
27805;BME280;15183;51.350;11.102;2022-12-20T15:03:58;99952.28;;;10.70;73.02
27805;BME280;15183;51.350;11.102;2022-12-20T15:06:43;99934.75;;;10.69;73.08
27805;BME280;15183;51.350;11.102;2022-12-20T15:09:11;99867.47;;;10.21;73.11
27805;BME280;15183;51.350;11.102;2022-12-20T15:11:37;99882.34;;;10.41;73.15
27805;BME280;15183;51.350;11.102;2022-12-20T15:14:26;99939.72;;;10.78;72.84
27805;BME280;15183;51.350;11.102;2022-12-20T15:16:56;99928.59;;;10.57;72.65
27805;BME280;15183;51.350;11.102;2022-12-20T15:19:23;99917.50;;;10.48;72.52
27805;BME280;15183;51.350;11.102;2022-12-20T15:21:49;99950.06;;;10.67;72.29